sensor_id;sensor_type;location;lat;lon;timestamp;pressure;altitude;pressure_sealevel;temperature;humidity
19843;BME280;10082;51.038;6.992;2022-08-19T00:01:46;112171.53;;;-144.33;100.00
19843;BME280;10082;51.038;6.992;2022-08-19T00:04:15;112171.53;;;-144.33;100.00
19843;BME280;10082;51.038;6.992;2022-08-19T00:06:45;112171.53;;;-144.33;100.00
19843;BME280;10082;51.038;6.992;2022-08-19T00:09:15;112171.53;;;-144.33;100.00
19843;BME280;10082;51.038;6.992;2022-08-19T00:11:42;112171.53;;;-144.33;100.00
19843;BME280;10082;51.038;6.992;2022-08-19T00:14:12;112171.53;;;-144.33;100.00
19843;BME280;10082;51.038;6.992;2022-08-19T00:16:41;112171.53;;;-144.33;100.00
19843;BME280;10082;51.038;6.992;2022-08-19T00:19:08;112171.53;;;-144.33;100.00
19843;BME280;10082;51.038;6.992;2022-08-19T00:21:35;112171.53;;;-144.33;100.00
19843;BME280;10082;51.038;6.992;2022-08-19T00:24:07;112171.53;;;-144.33;100.00
19843;BME280;10082;51.038;6.992;2022-08-19T00:26:35;112171.53;;;-144.33;100.00
19843;BME280;10082;51.038;6.992;2022-08-19T00:29:02;112171.53;;;-144.33;100.00
19843;BME280;10082;51.038;6.992;2022-08-19T00:31:29;112171.53;;;-144.33;100.00
19843;BME280;10082;51.038;6.992;2022-08-19T00:33:56;112171.53;;;-144.33;100.00
19843;BME280;10082;51.038;6.992;2022-08-19T00:36:23;112171.53;;;-144.33;100.00
19843;BME280;10082;51.038;6.992;2022-08-19T00:38:49;112171.53;;;-144.33;100.00
19843;BME280;10082;51.038;6.992;2022-08-19T00:41:20;112171.53;;;-144.33;100.00
19843;BME280;10082;51.038;6.992;2022-08-19T00:43:59;112171.53;;;-144.33;100.00
19843;BME280;10082;51.038;6.992;2022-08-19T00:46:27;112171.53;;;-144.33;100.00
19843;BME280;10082;51.038;6.992;2022-08-19T00:48:55;112171.53;;;-144.33;100.00
19843;BME280;10082;51.038;6.992;2022-08-19T00:51:24;112171.53;;;-144.33;100.00
19843;BME280;10082;51.038;6.992;2022-08-19T00:53:52;112171.53;;;-144.33;100.00
19843;BME280;10082;51.038;6.992;2022-08-19T00:56:20;112171.53;;;-144.33;100.00
19843;BME280;10082;51.038;6.992;2022-08-19T00:58:47;112171.53;;;-144.33;100.00
19843;BME280;10082;51.038;6.992;2022-08-19T01:01:14;112171.53;;;-144.33;100.00
19843;BME280;10082;51.038;6.992;2022-08-19T01:03:41;112171.53;;;-144.33;100.00
19843;BME280;10082;51.038;6.992;2022-08-19T01:06:08;112171.53;;;-144.33;100.00
19843;BME280;10082;51.038;6.992;2022-08-19T01:08:35;112171.53;;;-144.33;100.00
19843;BME280;10082;51.038;6.992;2022-08-19T01:11:01;112171.53;;;-144.33;100.00
19843;BME280;10082;51.038;6.992;2022-08-19T01:13:34;112171.53;;;-144.33;100.00
19843;BME280;10082;51.038;6.992;2022-08-19T01:16:05;112171.53;;;-144.33;100.00
19843;BME280;10082;51.038;6.992;2022-08-19T01:18:36;112171.53;;;-144.33;100.00
19843;BME280;10082;51.038;6.992;2022-08-19T01:21:08;112171.53;;;-144.33;100.00
19843;BME280;10082;51.038;6.992;2022-08-19T01:23:37;112171.53;;;-144.33;100.00
19843;BME280;10082;51.038;6.992;2022-08-19T01:26:12;112171.53;;;-144.33;100.00
19843;BME280;10082;51.038;6.992;2022-08-19T01:28:40;112171.53;;;-144.33;100.00
19843;BME280;10082;51.038;6.992;2022-08-19T01:31:13;112171.53;;;-144.33;100.00
19843;BME280;10082;51.038;6.992;2022-08-19T01:33:41;112171.53;;;-144.33;100.00
19843;BME280;10082;51.038;6.992;2022-08-19T01:36:10;112171.53;;;-144.33;100.00
19843;BME280;10082;51.038;6.992;2022-08-19T01:38:40;112171.53;;;-144.33;100.00
19843;BME280;10082;51.038;6.992;2022-08-19T01:41:08;112171.53;;;-144.33;100.00
19843;BME280;10082;51.038;6.992;2022-08-19T01:43:36;112171.53;;;-144.33;100.00
19843;BME280;10082;51.038;6.992;2022-08-19T01:46:04;112171.53;;;-144.33;100.00
19843;BME280;10082;51.038;6.992;2022-08-19T01:48:35;112171.53;;;-144.33;100.00
19843;BME280;10082;51.038;6.992;2022-08-19T01:51:02;112171.53;;;-144.33;100.00
19843;BME280;10082;51.038;6.992;2022-08-19T01:53:29;112171.53;;;-144.33;100.00
19843;BME280;10082;51.038;6.992;2022-08-19T01:55:58;112171.53;;;-144.33;100.00
19843;BME280;10082;51.038;6.992;2022-08-19T01:58:30;112171.53;;;-144.33;100.00
19843;BME280;10082;51.038;6.992;2022-08-19T02:00:58;112171.53;;;-144.33;100.00
19843;BME280;10082;51.038;6.992;2022-08-19T02:03:25;112171.53;;;-144.33;100.00
19843;BME280;10082;51.038;6.992;2022-08-19T02:05:57;112171.53;;;-144.33;100.00
19843;BME280;10082;51.038;6.992;2022-08-19T02:08:25;112171.53;;;-144.33;100.00
19843;BME280;10082;51.038;6.992;2022-08-19T02:10:52;112171.53;;;-144.33;100.00
19843;BME280;10082;51.038;6.992;2022-08-19T02:13:22;112171.53;;;-144.33;100.00
19843;BME280;10082;51.038;6.992;2022-08-19T02:15:49;112171.53;;;-144.33;100.00
19843;BME280;10082;51.038;6.992;2022-08-19T02:18:16;112171.53;;;-144.33;100.00
19843;BME280;10082;51.038;6.992;2022-08-19T02:20:43;112171.53;;;-144.33;100.00
19843;BME280;10082;51.038;6.992;2022-08-19T02:23:12;112171.53;;;-144.33;100.00
19843;BME280;10082;51.038;6.992;2022-08-19T02:25:40;112171.53;;;-144.33;100.00
19843;BME280;10082;51.038;6.992;2022-08-19T02:28:07;112171.53;;;-144.33;100.00
19843;BME280;10082;51.038;6.992;2022-08-19T02:30:36;112171.53;;;-144.33;100.00
19843;BME280;10082;51.038;6.992;2022-08-19T02:33:04;112171.53;;;-144.33;100.00
19843;BME280;10082;51.038;6.992;2022-08-19T02:35:31;112171.53;;;-144.33;100.00
19843;BME280;10082;51.038;6.992;2022-08-19T02:37:58;112171.53;;;-144.33;100.00
19843;BME280;10082;51.038;6.992;2022-08-19T02:40:48;112171.53;;;-144.33;100.00
19843;BME280;10082;51.038;6.992;2022-08-19T02:43:17;112171.53;;;-144.33;100.00
19843;BME280;10082;51.038;6.992;2022-08-19T02:45:47;112171.53;;;-144.33;100.00
19843;BME280;10082;51.038;6.992;2022-08-19T02:48:15;112171.53;;;-144.33;100.00
19843;BME280;10082;51.038;6.992;2022-08-19T02:50:43;112171.53;;;-144.33;100.00
19843;BME280;10082;51.038;6.992;2022-08-19T02:53:09;112171.53;;;-144.33;100.00
19843;BME280;10082;51.038;6.992;2022-08-19T02:55:42;112171.53;;;-144.33;100.00
19843;BME280;10082;51.038;6.992;2022-08-19T02:58:09;112171.53;;;-144.33;100.00
19843;BME280;10082;51.038;6.992;2022-08-19T03:00:41;112171.53;;;-144.33;100.00
19843;BME280;10082;51.038;6.992;2022-08-19T03:03:10;112171.53;;;-144.33;100.00
19843;BME280;10082;51.038;6.992;2022-08-19T03:05:37;112171.53;;;-144.33;100.00
19843;BME280;10082;51.038;6.992;2022-08-19T03:08:04;112171.53;;;-144.33;100.00
19843;BME280;10082;51.038;6.992;2022-08-19T03:10:32;112171.53;;;-144.33;100.00
19843;BME280;10082;51.038;6.992;2022-08-19T03:12:58;112171.53;;;-144.33;100.00
19843;BME280;10082;51.038;6.992;2022-08-19T03:15:25;112171.53;;;-144.33;100.00
19843;BME280;10082;51.038;6.992;2022-08-19T03:17:52;112171.53;;;-144.33;100.00
19843;BME280;10082;51.038;6.992;2022-08-19T03:20:21;112171.53;;;-144.33;100.00
19843;BME280;10082;51.038;6.992;2022-08-19T03:22:47;112171.53;;;-144.33;100.00
19843;BME280;10082;51.038;6.992;2022-08-19T03:25:14;112171.53;;;-144.33;100.00
19843;BME280;10082;51.038;6.992;2022-08-19T03:27:41;112171.53;;;-144.33;100.00
19843;BME280;10082;51.038;6.992;2022-08-19T03:30:09;112171.53;;;-144.33;100.00
19843;BME280;10082;51.038;6.992;2022-08-19T03:32:36;112171.53;;;-144.33;100.00
19843;BME280;10082;51.038;6.992;2022-08-19T03:35:04;112171.53;;;-144.33;100.00
19843;BME280;10082;51.038;6.992;2022-08-19T03:37:32;112171.53;;;-144.33;100.00
19843;BME280;10082;51.038;6.992;2022-08-19T03:40:00;112171.53;;;-144.33;100.00
19843;BME280;10082;51.038;6.992;2022-08-19T03:42:28;112171.53;;;-144.33;100.00
19843;BME280;10082;51.038;6.992;2022-08-19T03:44:55;112171.53;;;-144.33;100.00
19843;BME280;10082;51.038;6.992;2022-08-19T03:47:23;112171.53;;;-144.33;100.00
19843;BME280;10082;51.038;6.992;2022-08-19T03:49:50;112171.53;;;-144.33;100.00
19843;BME280;10082;51.038;6.992;2022-08-19T03:52:17;112171.53;;;-144.33;100.00
19843;BME280;10082;51.038;6.992;2022-08-19T03:54:46;112171.53;;;-144.33;100.00
19843;BME280;10082;51.038;6.992;2022-08-19T03:57:12;112171.53;;;-144.33;100.00
19843;BME280;10082;51.038;6.992;2022-08-19T03:59:39;112171.53;;;-144.33;100.00
19843;BME280;10082;51.038;6.992;2022-08-19T04:02:09;112171.53;;;-144.33;100.00
19843;BME280;10082;51.038;6.992;2022-08-19T04:04:36;112171.53;;;-144.33;100.00
19843;BME280;10082;51.038;6.992;2022-08-19T04:07:04;112171.53;;;-144.33;100.00
19843;BME280;10082;51.038;6.992;2022-08-19T04:09:30;112171.53;;;-144.33;100.00
19843;BME280;10082;51.038;6.992;2022-08-19T04:11:58;112171.53;;;-144.33;100.00
19843;BME280;10082;51.038;6.992;2022-08-19T04:14:28;112171.53;;;-144.33;100.00
19843;BME280;10082;51.038;6.992;2022-08-19T04:16:57;112171.53;;;-144.33;100.00
19843;BME280;10082;51.038;6.992;2022-08-19T04:19:25;112171.53;;;-144.33;100.00
19843;BME280;10082;51.038;6.992;2022-08-19T04:21:53;112171.53;;;-144.33;100.00
19843;BME280;10082;51.038;6.992;2022-08-19T04:24:21;112171.53;;;-144.33;100.00
19843;BME280;10082;51.038;6.992;2022-08-19T04:26:49;112171.53;;;-144.33;100.00
19843;BME280;10082;51.038;6.992;2022-08-19T04:29:19;112171.53;;;-144.33;100.00
19843;BME280;10082;51.038;6.992;2022-08-19T04:31:46;112171.53;;;-144.33;100.00
19843;BME280;10082;51.038;6.992;2022-08-19T04:34:15;112171.53;;;-144.33;100.00
19843;BME280;10082;51.038;6.992;2022-08-19T04:36:43;112171.53;;;-144.33;100.00
19843;BME280;10082;51.038;6.992;2022-08-19T04:39:13;112171.53;;;-144.33;100.00
19843;BME280;10082;51.038;6.992;2022-08-19T04:41:41;112171.53;;;-144.33;100.00
19843;BME280;10082;51.038;6.992;2022-08-19T04:44:27;112171.53;;;-144.33;100.00
19843;BME280;10082;51.038;6.992;2022-08-19T04:46:56;112171.53;;;-144.33;100.00
19843;BME280;10082;51.038;6.992;2022-08-19T04:49:24;112171.53;;;-144.33;100.00
19843;BME280;10082;51.038;6.992;2022-08-19T04:51:52;112171.53;;;-144.33;100.00
19843;BME280;10082;51.038;6.992;2022-08-19T04:54:20;112171.53;;;-144.33;100.00
19843;BME280;10082;51.038;6.992;2022-08-19T04:56:48;112171.53;;;-144.33;100.00
19843;BME280;10082;51.038;6.992;2022-08-19T04:59:15;112171.53;;;-144.33;100.00
19843;BME280;10082;51.038;6.992;2022-08-19T05:01:43;112171.53;;;-144.33;100.00
19843;BME280;10082;51.038;6.992;2022-08-19T05:04:15;112171.53;;;-144.33;100.00
19843;BME280;10082;51.038;6.992;2022-08-19T05:06:45;112171.53;;;-144.33;100.00
19843;BME280;10082;51.038;6.992;2022-08-19T05:09:12;112171.53;;;-144.33;100.00
19843;BME280;10082;51.038;6.992;2022-08-19T05:11:39;112171.53;;;-144.33;100.00
19843;BME280;10082;51.038;6.992;2022-08-19T05:14:07;112171.53;;;-144.33;100.00
19843;BME280;10082;51.038;6.992;2022-08-19T05:16:34;112171.53;;;-144.33;100.00
19843;BME280;10082;51.038;6.992;2022-08-19T05:19:02;112171.53;;;-144.33;100.00
19843;BME280;10082;51.038;6.992;2022-08-19T05:21:46;112171.53;;;-144.33;100.00
19843;BME280;10082;51.038;6.992;2022-08-19T05:24:31;112171.53;;;-144.33;100.00
19843;BME280;10082;51.038;6.992;2022-08-19T05:27:00;112171.53;;;-144.33;100.00
19843;BME280;10082;51.038;6.992;2022-08-19T05:29:29;112171.53;;;-144.33;100.00
19843;BME280;10082;51.038;6.992;2022-08-19T05:31:57;112171.53;;;-144.33;100.00
19843;BME280;10082;51.038;6.992;2022-08-19T05:34:26;112171.53;;;-144.33;100.00
19843;BME280;10082;51.038;6.992;2022-08-19T05:36:55;112171.53;;;-144.33;100.00
19843;BME280;10082;51.038;6.992;2022-08-19T05:39:24;112171.53;;;-144.33;100.00
19843;BME280;10082;51.038;6.992;2022-08-19T05:41:54;112171.53;;;-144.33;100.00
19843;BME280;10082;51.038;6.992;2022-08-19T05:44:23;112171.53;;;-144.33;100.00
19843;BME280;10082;51.038;6.992;2022-08-19T05:46:50;112171.53;;;-144.33;100.00
19843;BME280;10082;51.038;6.992;2022-08-19T05:49:20;112171.53;;;-144.33;100.00
19843;BME280;10082;51.038;6.992;2022-08-19T05:51:49;112171.53;;;-144.33;100.00
19843;BME280;10082;51.038;6.992;2022-08-19T05:54:16;112171.53;;;-144.33;100.00
19843;BME280;10082;51.038;6.992;2022-08-19T05:56:43;112171.53;;;-144.33;100.00
19843;BME280;10082;51.038;6.992;2022-08-19T05:59:14;112171.53;;;-144.33;100.00
19843;BME280;10082;51.038;6.992;2022-08-19T06:01:42;112171.53;;;-144.33;100.00
19843;BME280;10082;51.038;6.992;2022-08-19T06:04:10;112171.53;;;-144.33;100.00
19843;BME280;10082;51.038;6.992;2022-08-19T06:06:37;112171.53;;;-144.33;100.00
19843;BME280;10082;51.038;6.992;2022-08-19T06:09:06;112171.53;;;-144.33;100.00
19843;BME280;10082;51.038;6.992;2022-08-19T06:11:37;112171.53;;;-144.33;100.00
19843;BME280;10082;51.038;6.992;2022-08-19T06:14:06;112171.53;;;-144.33;100.00
19843;BME280;10082;51.038;6.992;2022-08-19T06:16:34;112171.53;;;-144.33;100.00
19843;BME280;10082;51.038;6.992;2022-08-19T06:19:04;112171.53;;;-144.33;100.00
19843;BME280;10082;51.038;6.992;2022-08-19T06:21:31;112171.53;;;-144.33;100.00
19843;BME280;10082;51.038;6.992;2022-08-19T06:23:59;112171.53;;;-144.33;100.00
19843;BME280;10082;51.038;6.992;2022-08-19T06:26:27;112171.53;;;-144.33;100.00
19843;BME280;10082;51.038;6.992;2022-08-19T06:28:54;112171.53;;;-144.33;100.00
19843;BME280;10082;51.038;6.992;2022-08-19T06:31:24;112171.53;;;-144.33;100.00
19843;BME280;10082;51.038;6.992;2022-08-19T06:33:51;112171.53;;;-144.33;100.00
19843;BME280;10082;51.038;6.992;2022-08-19T06:36:20;112171.53;;;-144.33;100.00
19843;BME280;10082;51.038;6.992;2022-08-19T06:38:47;112171.53;;;-144.33;100.00
19843;BME280;10082;51.038;6.992;2022-08-19T06:41:14;112171.53;;;-144.33;100.00
19843;BME280;10082;51.038;6.992;2022-08-19T06:43:42;112171.53;;;-144.33;100.00
19843;BME280;10082;51.038;6.992;2022-08-19T06:46:11;112171.53;;;-144.33;100.00
19843;BME280;10082;51.038;6.992;2022-08-19T06:48:38;112171.53;;;-144.33;100.00
19843;BME280;10082;51.038;6.992;2022-08-19T06:51:05;112171.53;;;-144.33;100.00
19843;BME280;10082;51.038;6.992;2022-08-19T06:53:33;112171.53;;;-144.33;100.00
19843;BME280;10082;51.038;6.992;2022-08-19T06:56:00;112171.53;;;-144.33;100.00
19843;BME280;10082;51.038;6.992;2022-08-19T06:58:28;112171.53;;;-144.33;100.00
19843;BME280;10082;51.038;6.992;2022-08-19T07:00:59;112171.53;;;-144.33;100.00
19843;BME280;10082;51.038;6.992;2022-08-19T07:03:28;112171.53;;;-144.33;100.00
19843;BME280;10082;51.038;6.992;2022-08-19T07:05:56;112171.53;;;-144.33;100.00
19843;BME280;10082;51.038;6.992;2022-08-19T07:08:24;112171.53;;;-144.33;100.00
19843;BME280;10082;51.038;6.992;2022-08-19T07:10:52;112171.53;;;-144.33;100.00
19843;BME280;10082;51.038;6.992;2022-08-19T07:13:20;112171.53;;;-144.33;100.00
19843;BME280;10082;51.038;6.992;2022-08-19T07:15:48;112171.53;;;-144.33;100.00
19843;BME280;10082;51.038;6.992;2022-08-19T07:18:17;112171.53;;;-144.33;100.00
19843;BME280;10082;51.038;6.992;2022-08-19T07:20:44;112171.53;;;-144.33;100.00
19843;BME280;10082;51.038;6.992;2022-08-19T07:23:11;112171.53;;;-144.33;100.00
19843;BME280;10082;51.038;6.992;2022-08-19T07:25:38;112171.53;;;-144.33;100.00
19843;BME280;10082;51.038;6.992;2022-08-19T07:28:05;112171.53;;;-144.33;100.00
19843;BME280;10082;51.038;6.992;2022-08-19T07:30:32;112171.53;;;-144.33;100.00
19843;BME280;10082;51.038;6.992;2022-08-19T07:33:02;112171.53;;;-144.33;100.00
19843;BME280;10082;51.038;6.992;2022-08-19T07:35:30;112171.53;;;-144.33;100.00
19843;BME280;10082;51.038;6.992;2022-08-19T07:37:57;112171.53;;;-144.33;100.00
19843;BME280;10082;51.038;6.992;2022-08-19T07:40:24;112171.53;;;-144.33;100.00
19843;BME280;10082;51.038;6.992;2022-08-19T07:42:51;112171.53;;;-144.33;100.00
19843;BME280;10082;51.038;6.992;2022-08-19T07:45:17;112171.53;;;-144.33;100.00
19843;BME280;10082;51.038;6.992;2022-08-19T07:47:44;112171.53;;;-144.33;100.00
19843;BME280;10082;51.038;6.992;2022-08-19T07:50:11;112171.53;;;-144.33;100.00
19843;BME280;10082;51.038;6.992;2022-08-19T07:52:39;112171.53;;;-144.33;100.00
19843;BME280;10082;51.038;6.992;2022-08-19T07:55:08;112171.53;;;-144.33;100.00
19843;BME280;10082;51.038;6.992;2022-08-19T07:57:35;112171.53;;;-144.33;100.00
19843;BME280;10082;51.038;6.992;2022-08-19T08:00:05;112171.53;;;-144.33;100.00
19843;BME280;10082;51.038;6.992;2022-08-19T08:02:37;112171.53;;;-144.33;100.00
19843;BME280;10082;51.038;6.992;2022-08-19T08:05:05;112171.53;;;-144.33;100.00
19843;BME280;10082;51.038;6.992;2022-08-19T08:07:50;112171.53;;;-144.33;100.00
19843;BME280;10082;51.038;6.992;2022-08-19T08:10:34;112171.53;;;-144.33;100.00
19843;BME280;10082;51.038;6.992;2022-08-19T08:13:01;112171.53;;;-144.33;100.00
19843;BME280;10082;51.038;6.992;2022-08-19T08:15:30;112171.53;;;-144.33;100.00
19843;BME280;10082;51.038;6.992;2022-08-19T08:17:57;112171.53;;;-144.33;100.00
19843;BME280;10082;51.038;6.992;2022-08-19T08:20:24;112171.53;;;-144.33;100.00
19843;BME280;10082;51.038;6.992;2022-08-19T08:22:52;112171.53;;;-144.33;100.00
19843;BME280;10082;51.038;6.992;2022-08-19T08:25:36;112171.53;;;-144.33;100.00
19843;BME280;10082;51.038;6.992;2022-08-19T08:28:03;112171.53;;;-144.33;100.00
19843;BME280;10082;51.038;6.992;2022-08-19T08:30:30;112171.53;;;-144.33;100.00
19843;BME280;10082;51.038;6.992;2022-08-19T08:32:58;112171.53;;;-144.33;100.00
19843;BME280;10082;51.038;6.992;2022-08-19T08:35:25;112171.53;;;-144.33;100.00
19843;BME280;10082;51.038;6.992;2022-08-19T08:37:54;112171.53;;;-144.33;100.00
19843;BME280;10082;51.038;6.992;2022-08-19T08:40:29;112171.53;;;-144.33;98.63
19843;BME280;10082;51.038;6.992;2022-08-19T08:42:59;112171.53;;;-144.33;100.00
19843;BME280;10082;51.038;6.992;2022-08-19T08:45:30;112171.53;;;-144.33;94.38
19843;BME280;10082;51.038;6.992;2022-08-19T08:48:02;112171.53;;;-144.33;95.83
19843;BME280;10082;51.038;6.992;2022-08-19T08:50:33;112171.53;;;-144.33;94.56
19843;BME280;10082;51.038;6.992;2022-08-19T08:53:06;112171.53;;;-144.33;92.14
19843;BME280;10082;51.038;6.992;2022-08-19T08:55:33;112171.53;;;-144.33;86.84
19843;BME280;10082;51.038;6.992;2022-08-19T08:58:03;112171.53;;;-144.33;88.95
19843;BME280;10082;51.038;6.992;2022-08-19T09:00:34;112171.53;;;-144.33;84.91
19843;BME280;10082;51.038;6.992;2022-08-19T09:03:02;112171.53;;;-144.33;87.99
19843;BME280;10082;51.038;6.992;2022-08-19T09:05:36;112171.53;;;-144.33;85.22
19843;BME280;10082;51.038;6.992;2022-08-19T09:08:22;112171.53;;;-144.33;79.90
19843;BME280;10082;51.038;6.992;2022-08-19T09:10:55;112171.53;;;-144.33;68.33
19843;BME280;10082;51.038;6.992;2022-08-19T09:13:29;112171.53;;;-144.33;72.52
19843;BME280;10082;51.038;6.992;2022-08-19T09:16:02;112171.53;;;-144.33;70.87
19843;BME280;10082;51.038;6.992;2022-08-19T09:18:39;112171.53;;;-144.33;68.13
19843;BME280;10082;51.038;6.992;2022-08-19T09:21:07;112171.53;;;-144.33;70.18
19843;BME280;10082;51.038;6.992;2022-08-19T09:23:36;112171.53;;;-144.33;70.70
19843;BME280;10082;51.038;6.992;2022-08-19T09:26:07;112171.53;;;-144.33;68.40
19843;BME280;10082;51.038;6.992;2022-08-19T09:28:34;112171.53;;;-144.33;68.31
19843;BME280;10082;51.038;6.992;2022-08-19T09:31:02;112171.53;;;-144.33;70.60
19843;BME280;10082;51.038;6.992;2022-08-19T09:33:29;112171.53;;;-144.33;70.39
19843;BME280;10082;51.038;6.992;2022-08-19T09:36:05;112171.53;;;-144.33;71.84
19843;BME280;10082;51.038;6.992;2022-08-19T09:38:32;112171.53;;;-144.33;69.77
19843;BME280;10082;51.038;6.992;2022-08-19T09:41:04;112171.53;;;-144.33;69.65
19843;BME280;10082;51.038;6.992;2022-08-19T09:43:31;112171.53;;;-144.33;71.96
19843;BME280;10082;51.038;6.992;2022-08-19T09:46:14;112171.53;;;-144.33;67.93
19843;BME280;10082;51.038;6.992;2022-08-19T09:48:42;112171.53;;;-144.33;62.99
19843;BME280;10082;51.038;6.992;2022-08-19T09:51:12;112171.53;;;-144.33;61.07
19843;BME280;10082;51.038;6.992;2022-08-19T09:53:42;112171.53;;;-144.33;60.42
19843;BME280;10082;51.038;6.992;2022-08-19T09:56:09;112171.53;;;-144.33;59.90
19843;BME280;10082;51.038;6.992;2022-08-19T09:58:36;112171.53;;;-144.33;57.69
19843;BME280;10082;51.038;6.992;2022-08-19T10:01:04;112171.53;;;-144.33;53.73
19843;BME280;10082;51.038;6.992;2022-08-19T10:03:34;112171.53;;;-144.33;53.80
19843;BME280;10082;51.038;6.992;2022-08-19T10:06:04;112171.53;;;-144.33;51.23
19843;BME280;10082;51.038;6.992;2022-08-19T10:08:34;112171.53;;;-144.33;52.53
19843;BME280;10082;51.038;6.992;2022-08-19T10:11:02;112171.53;;;-144.33;52.34
19843;BME280;10082;51.038;6.992;2022-08-19T10:13:31;112171.53;;;-144.33;50.84
19843;BME280;10082;51.038;6.992;2022-08-19T10:16:05;112171.53;;;-144.33;50.33
19843;BME280;10082;51.038;6.992;2022-08-19T10:18:35;112171.53;;;-144.33;48.28
19843;BME280;10082;51.038;6.992;2022-08-19T10:21:05;112171.53;;;-144.33;48.21
19843;BME280;10082;51.038;6.992;2022-08-19T10:23:34;112171.53;;;-144.33;48.81
19843;BME280;10082;51.038;6.992;2022-08-19T10:26:02;112171.53;;;-144.33;49.38
19843;BME280;10082;51.038;6.992;2022-08-19T10:28:29;112171.53;;;-144.33;46.67
19843;BME280;10082;51.038;6.992;2022-08-19T10:30:56;112171.53;;;-144.33;45.08
19843;BME280;10082;51.038;6.992;2022-08-19T10:33:22;112171.53;;;-144.33;47.12
19843;BME280;10082;51.038;6.992;2022-08-19T10:35:59;112171.53;;;-144.33;47.12
19843;BME280;10082;51.038;6.992;2022-08-19T10:38:25;112171.53;;;-144.33;46.51
19843;BME280;10082;51.038;6.992;2022-08-19T10:40:54;112171.53;;;-144.33;46.58
19843;BME280;10082;51.038;6.992;2022-08-19T10:43:20;112171.53;;;-144.33;46.58
19843;BME280;10082;51.038;6.992;2022-08-19T10:45:52;112171.53;;;-144.33;44.09
19843;BME280;10082;51.038;6.992;2022-08-19T10:48:19;112171.53;;;-144.33;44.94
19843;BME280;10082;51.038;6.992;2022-08-19T10:50:45;112171.53;;;-144.33;44.44
19843;BME280;10082;51.038;6.992;2022-08-19T10:53:31;112171.53;;;-144.33;43.55
19843;BME280;10082;51.038;6.992;2022-08-19T10:55:57;112171.53;;;-144.33;39.54
19843;BME280;10082;51.038;6.992;2022-08-19T10:58:41;112171.53;;;-144.33;42.83
19843;BME280;10082;51.038;6.992;2022-08-19T11:01:09;112171.53;;;-144.33;42.38
19843;BME280;10082;51.038;6.992;2022-08-19T11:03:36;112171.53;;;-144.33;44.34
19843;BME280;10082;51.038;6.992;2022-08-19T11:06:06;112171.53;;;-144.33;45.03
19843;BME280;10082;51.038;6.992;2022-08-19T11:08:35;112171.53;;;-144.33;41.51
19843;BME280;10082;51.038;6.992;2022-08-19T11:11:04;112171.53;;;-144.33;43.63
19843;BME280;10082;51.038;6.992;2022-08-19T11:13:33;112171.53;;;-144.33;43.70
19843;BME280;10082;51.038;6.992;2022-08-19T11:16:06;112171.53;;;-144.33;46.08
19843;BME280;10082;51.038;6.992;2022-08-19T11:18:35;112171.53;;;-144.33;45.13
19843;BME280;10082;51.038;6.992;2022-08-19T11:21:11;112171.53;;;-144.33;41.91
19843;BME280;10082;51.038;6.992;2022-08-19T11:23:40;112171.53;;;-144.33;41.63
19843;BME280;10082;51.038;6.992;2022-08-19T11:26:06;112171.53;;;-144.33;41.25
19843;BME280;10082;51.038;6.992;2022-08-19T11:28:33;112171.53;;;-144.33;40.76
19843;BME280;10082;51.038;6.992;2022-08-19T11:31:00;112171.53;;;-144.33;41.64
19843;BME280;10082;51.038;6.992;2022-08-19T11:33:28;112171.53;;;-144.33;43.67
19843;BME280;10082;51.038;6.992;2022-08-19T11:35:57;112171.53;;;-144.33;44.87
19843;BME280;10082;51.038;6.992;2022-08-19T11:38:24;112171.53;;;-144.33;46.45
19843;BME280;10082;51.038;6.992;2022-08-19T11:40:56;112171.53;;;-144.33;46.53
19843;BME280;10082;51.038;6.992;2022-08-19T11:43:23;112171.53;;;-144.33;42.79
19843;BME280;10082;51.038;6.992;2022-08-19T11:45:52;112171.53;;;-144.33;42.94
19843;BME280;10082;51.038;6.992;2022-08-19T11:48:18;112171.53;;;-144.33;45.12
19843;BME280;10082;51.038;6.992;2022-08-19T11:50:47;112171.53;;;-144.33;44.04
19843;BME280;10082;51.038;6.992;2022-08-19T11:53:14;112171.53;;;-144.33;44.46
19843;BME280;10082;51.038;6.992;2022-08-19T11:55:41;112171.53;;;-144.33;44.96
19843;BME280;10082;51.038;6.992;2022-08-19T11:58:09;112171.53;;;-144.33;43.62
19843;BME280;10082;51.038;6.992;2022-08-19T12:00:37;112171.53;;;-144.33;45.07
19843;BME280;10082;51.038;6.992;2022-08-19T12:03:04;112171.53;;;-144.33;44.93
19843;BME280;10082;51.038;6.992;2022-08-19T12:05:30;112171.53;;;-144.33;45.20
19843;BME280;10082;51.038;6.992;2022-08-19T12:07:57;112171.53;;;-144.33;42.05
19843;BME280;10082;51.038;6.992;2022-08-19T12:10:24;112171.53;;;-144.33;39.16
19843;BME280;10082;51.038;6.992;2022-08-19T12:12:51;112171.53;;;-144.33;41.60
19843;BME280;10082;51.038;6.992;2022-08-19T12:15:19;112171.53;;;-144.33;41.88
19843;BME280;10082;51.038;6.992;2022-08-19T12:17:46;112171.53;;;-144.33;41.94
19843;BME280;10082;51.038;6.992;2022-08-19T12:20:13;112171.53;;;-144.33;40.59
19843;BME280;10082;51.038;6.992;2022-08-19T12:22:42;112171.53;;;-144.33;39.85
19843;BME280;10082;51.038;6.992;2022-08-19T12:25:10;112171.53;;;-144.33;39.02
19843;BME280;10082;51.038;6.992;2022-08-19T12:27:38;112171.53;;;-144.33;39.26
19843;BME280;10082;51.038;6.992;2022-08-19T12:30:07;112171.53;;;-144.33;39.59
19843;BME280;10082;51.038;6.992;2022-08-19T12:32:36;112171.53;;;-144.33;38.29